createdAt,value
2023-04-28T00:00:11.826Z,76.29
2023-04-28T00:02:41.686Z,76.68
2023-04-28T00:05:11.152Z,76.28
2023-04-28T00:07:40.578Z,75.49
2023-04-28T00:10:10.881Z,75.05
2023-04-28T00:12:40.144Z,77.17
2023-04-28T00:15:10.042Z,77.40
2023-04-28T00:17:39.661Z,76.93
2023-04-28T00:20:10.228Z,78.54
2023-04-28T00:22:39.703Z,79.58
2023-04-28T00:25:09.579Z,78.32
2023-04-28T00:27:38.963Z,80.13
2023-04-28T00:30:09.424Z,79.93
2023-04-28T00:32:38.773Z,79.41
2023-04-28T00:35:08.880Z,79.84
2023-04-28T00:37:39.245Z,79.54
2023-04-28T00:40:09.365Z,78.07
2023-04-28T00:42:38.625Z,78.12
2023-04-28T00:45:08.672Z,79.00
2023-04-28T00:47:38.486Z,79.21
2023-04-28T00:50:10.451Z,78.42
2023-04-28T00:52:40.309Z,78.28
2023-04-28T00:55:11.151Z,78.81
2023-04-28T00:57:40.529Z,78.56
2023-04-28T01:00:10.821Z,78.35
2023-04-28T01:02:40.390Z,79.81
2023-04-28T01:05:10.613Z,78.13
2023-04-28T01:07:39.946Z,78.26
2023-04-28T01:10:11.099Z,79.41
2023-04-28T01:12:40.551Z,78.66
2023-04-28T01:15:13.521Z,77.99
2023-04-28T01:17:44.096Z,78.42
2023-04-28T01:20:14.299Z,78.28
2023-04-28T01:22:44.301Z,78.77
2023-04-28T01:25:13.699Z,79.20
2023-04-28T01:27:43.049Z,79.12
2023-04-28T01:30:12.710Z,78.75
2023-04-28T01:32:42.070Z,80.36
2023-04-28T01:35:11.353Z,79.67
2023-04-28T01:37:41.192Z,79.23
2023-04-28T01:40:11.299Z,79.23
2023-04-28T01:42:40.869Z,78.77
2023-04-28T01:45:11.080Z,78.72
2023-04-28T01:47:40.474Z,78.89
2023-04-28T01:50:10.237Z,78.75
2023-04-28T01:52:39.745Z,78.94
2023-04-28T01:55:09.647Z,78.95
2023-04-28T01:57:39.436Z,79.26
2023-04-28T02:00:09.773Z,78.69
2023-04-28T02:02:41.002Z,79.23
2023-04-28T02:05:11.141Z,79.44
2023-04-28T02:07:41.667Z,78.96
2023-04-28T02:10:11.371Z,79.96
2023-04-28T02:12:42.723Z,80.70
2023-04-28T02:15:12.394Z,80.08
2023-04-28T02:17:41.701Z,79.81
2023-04-28T02:20:11.925Z,80.88
2023-04-28T02:22:41.568Z,80.25
2023-04-28T02:25:14.245Z,80.42
2023-04-28T02:27:43.225Z,80.74
2023-04-28T02:30:13.468Z,80.43
2023-04-28T02:32:42.811Z,80.56
2023-04-28T02:35:12.450Z,80.86
2023-04-28T02:37:41.984Z,81.06
2023-04-28T02:40:12.050Z,80.69
2023-04-28T02:42:41.323Z,81.09
2023-04-28T02:45:11.994Z,80.89
2023-04-28T02:47:41.466Z,81.10
2023-04-28T02:50:11.688Z,82.44
2023-04-28T02:52:41.099Z,81.06
2023-04-28T02:55:11.115Z,81.39
2023-04-28T02:57:40.471Z,81.38
2023-04-28T03:00:10.972Z,81.53
2023-04-28T03:02:41.962Z,81.34
2023-04-28T03:05:11.416Z,81.51
2023-04-28T03:07:41.071Z,81.40
2023-04-28T03:10:11.722Z,81.69
2023-04-28T03:12:41.348Z,81.69
2023-04-28T03:15:12.731Z,81.47
2023-04-28T03:17:43.434Z,82.97
2023-04-28T03:20:13.368Z,82.26
2023-04-28T03:22:43.005Z,81.00
2023-04-28T03:25:13.788Z,81.46
2023-04-28T03:27:44.720Z,81.12
2023-04-28T03:30:14.458Z,81.84
2023-04-28T03:32:43.836Z,81.59
2023-04-28T03:35:13.903Z,81.42
2023-04-28T03:37:44.720Z,82.28
2023-04-28T03:40:14.071Z,81.98
2023-04-28T03:42:51.030Z,81.37
2023-04-28T03:45:22.273Z,81.99
2023-04-28T03:47:51.633Z,82.56
2023-04-28T03:50:21.151Z,82.80
2023-04-28T03:52:50.528Z,81.87
2023-04-28T03:55:20.008Z,82.42
2023-04-28T03:57:49.428Z,83.58
2023-04-28T04:00:20.992Z,82.26
2023-04-28T04:02:50.472Z,82.65
2023-04-28T04:05:20.422Z,82.47
2023-04-28T04:07:49.824Z,83.18
2023-04-28T04:10:19.372Z,82.41
2023-04-28T04:12:49.823Z,83.52
2023-04-28T04:15:20.125Z,83.65
2023-04-28T04:17:49.922Z,83.21
2023-04-28T04:20:19.318Z,83.92
2023-04-28T04:22:48.634Z,83.98
2023-04-28T04:25:17.907Z,84.03
2023-04-28T04:27:48.899Z,83.41
2023-04-28T04:30:18.492Z,83.29
2023-04-28T04:32:47.850Z,83.64
2023-04-28T04:35:17.609Z,83.92
2023-04-28T04:37:46.957Z,84.54
2023-04-28T04:40:17.790Z,84.35
2023-04-28T04:42:48.777Z,83.73
2023-04-28T04:45:19.970Z,84.43
2023-04-28T04:47:49.734Z,84.35
2023-04-28T04:50:19.896Z,84.80
2023-04-28T04:52:49.250Z,85.08
2023-04-28T04:55:19.564Z,85.18
2023-04-28T04:57:49.111Z,84.55
2023-04-28T05:00:38.720Z,86.22
2023-04-28T05:03:07.923Z,86.18
2023-04-28T05:05:38.061Z,85.50
2023-04-28T05:08:09.027Z,86.06
2023-04-28T05:10:38.509Z,86.56
2023-04-28T05:13:07.813Z,85.17
2023-04-28T05:15:37.369Z,85.92
2023-04-28T05:18:11.473Z,85.59
2023-04-28T05:20:41.312Z,85.57
2023-04-28T05:23:10.796Z,86.42
2023-04-28T05:25:40.235Z,85.66
2023-04-28T05:28:13.411Z,85.36
2023-04-28T05:30:44.905Z,84.15
2023-04-28T05:33:14.865Z,84.26
2023-04-28T05:35:44.724Z,85.56
2023-04-28T05:38:14.185Z,84.96
2023-04-28T05:40:44.815Z,86.98
2023-04-28T05:43:14.676Z,87.67
2023-04-28T05:45:44.482Z,88.97
2023-04-28T05:48:16.275Z,90.73
2023-04-28T05:50:46.536Z,91.73
2023-04-28T05:53:15.972Z,92.81
2023-04-28T05:55:45.390Z,93.46
2023-04-28T05:58:16.101Z,94.33
2023-04-28T06:00:45.646Z,95.24
2023-04-28T06:03:16.812Z,95.96
2023-04-28T06:05:47.648Z,96.01
2023-04-28T06:08:17.490Z,96.44
2023-04-28T06:10:47.183Z,97.39
2023-04-28T06:13:16.891Z,96.57
2023-04-28T06:15:46.255Z,97.25
2023-04-28T06:18:16.526Z,97.06
2023-04-28T06:20:45.756Z,98.35
2023-04-28T06:23:15.542Z,98.07
2023-04-28T06:25:49.309Z,98.13
2023-04-28T06:28:18.627Z,98.22
2023-04-28T06:30:47.913Z,97.78
2023-04-28T06:33:17.574Z,98.52
2023-04-28T06:35:47.081Z,97.36
2023-04-28T06:38:17.581Z,96.53
2023-04-28T06:40:47.064Z,97.62
2023-04-28T06:43:17.245Z,98.59
2023-04-28T06:45:48.386Z,99.70
2023-04-28T06:48:18.247Z,100.00
2023-04-28T06:50:47.516Z,100.00
2023-04-28T06:53:17.198Z,100.00
2023-04-28T06:55:46.567Z,100.00
2023-04-28T06:58:16.473Z,100.00
2023-04-28T07:00:45.866Z,100.00
2023-04-28T07:03:15.259Z,100.00
2023-04-28T07:05:44.981Z,100.00
2023-04-28T07:08:14.356Z,100.00
2023-04-28T07:10:43.993Z,100.00
2023-04-28T07:13:13.618Z,100.00
2023-04-28T07:15:42.951Z,100.00
2023-04-28T07:18:12.637Z,100.00
2023-04-28T07:20:43.588Z,100.00
2023-04-28T07:23:12.982Z,100.00
2023-04-28T07:25:42.940Z,100.00
2023-04-28T07:28:12.390Z,100.00
2023-04-28T07:30:41.937Z,100.00
2023-04-28T07:33:11.596Z,100.00
2023-04-28T07:35:41.049Z,100.00
2023-04-28T07:38:10.928Z,100.00
2023-04-28T07:40:40.442Z,100.00
2023-04-28T07:43:09.716Z,100.00
2023-04-28T07:45:42.250Z,100.00
2023-04-28T07:48:12.630Z,100.00
2023-04-28T07:50:41.980Z,100.00
2023-04-28T07:53:11.388Z,100.00
2023-04-28T07:55:42.324Z,100.00
2023-04-28T07:58:12.184Z,100.00
2023-04-28T08:00:41.708Z,100.00
2023-04-28T08:03:11.692Z,100.00
2023-04-28T08:05:42.311Z,100.00
2023-04-28T08:08:11.994Z,100.00
2023-04-28T08:10:43.762Z,100.00
2023-04-28T08:13:13.054Z,100.00
2023-04-28T08:15:42.547Z,100.00
2023-04-28T08:18:12.177Z,100.00
2023-04-28T08:20:41.638Z,100.00
2023-04-28T08:23:11.626Z,100.00
2023-04-28T08:25:41.633Z,100.00
2023-04-28T08:28:10.966Z,100.00
2023-04-28T08:30:40.491Z,100.00
2023-04-28T08:33:09.833Z,100.00
2023-04-28T08:35:40.116Z,100.00
2023-04-28T08:38:11.043Z,100.00
2023-04-28T08:40:42.356Z,100.00
2023-04-28T08:43:12.196Z,100.00
2023-04-28T08:45:43.519Z,100.00
2023-04-28T08:48:20.099Z,100.00
2023-04-28T08:50:54.742Z,100.00
2023-04-28T08:53:26.769Z,100.00
2023-04-28T08:55:57.892Z,100.00
2023-04-28T08:58:28.438Z,100.00
2023-04-28T09:00:57.773Z,100.00
2023-04-28T09:03:28.398Z,100.00
2023-04-28T09:05:58.594Z,100.00
2023-04-28T09:08:28.901Z,100.00
2023-04-28T09:11:12.454Z,100.00
2023-04-28T09:13:42.908Z,100.00
2023-04-28T09:16:13.084Z,100.00
2023-04-28T09:18:43.682Z,100.00
2023-04-28T09:21:13.448Z,100.00
2023-04-28T09:23:50.888Z,100.00
2023-04-28T09:26:20.172Z,100.00
2023-04-28T09:28:49.893Z,100.00
2023-04-28T09:31:28.388Z,100.00
2023-04-28T09:33:59.220Z,100.00
2023-04-28T09:36:31.057Z,100.00
2023-04-28T09:39:01.278Z,100.00
2023-04-28T09:41:45.409Z,100.00
2023-04-28T09:44:19.568Z,100.00
2023-04-28T09:46:49.767Z,100.00
2023-04-28T09:49:19.032Z,100.00
2023-04-28T09:51:48.513Z,100.00
2023-04-28T09:55:04.084Z,100.00
2023-04-28T09:57:35.526Z,100.00
2023-04-28T10:00:06.829Z,100.00
2023-04-28T10:05:09.960Z,100.00
2023-04-28T10:07:40.873Z,100.00
2023-04-28T10:10:10.870Z,100.00
2023-04-28T10:12:41.248Z,100.00
2023-04-28T10:15:12.029Z,100.00
2023-04-28T10:17:41.808Z,100.00
2023-04-28T10:20:12.722Z,100.00
2023-04-28T10:23:04.720Z,100.00
2023-04-28T10:25:36.020Z,100.00
2023-04-28T10:28:10.039Z,100.00
2023-04-28T10:30:39.302Z,100.00
2023-04-28T10:33:18.151Z,100.00
2023-04-28T10:35:48.459Z,100.00
2023-04-28T10:38:21.686Z,100.00
2023-04-28T10:40:52.505Z,100.00
2023-04-28T10:43:38.063Z,100.00
2023-04-28T10:46:09.050Z,100.00
2023-04-28T10:48:54.309Z,100.00
2023-04-28T10:51:24.472Z,100.00
2023-04-28T10:53:57.297Z,100.00
2023-04-28T10:56:28.208Z,100.00
2023-04-28T10:59:01.087Z,100.00
2023-04-28T11:01:33.378Z,100.00
2023-04-28T11:04:17.861Z,100.00
2023-04-28T11:06:49.295Z,100.00
2023-04-28T11:09:22.987Z,100.00
2023-04-28T11:12:06.953Z,100.00
2023-04-28T11:14:37.937Z,100.00
2023-04-28T11:17:13.645Z,100.00
2023-04-28T11:19:49.579Z,100.00
2023-04-28T11:22:24.008Z,100.00
2023-04-28T11:24:57.933Z,100.00
2023-04-28T11:27:28.640Z,100.00
2023-04-28T11:29:58.625Z,100.00
2023-04-28T11:32:35.695Z,100.00
2023-04-28T11:35:07.291Z,100.00
2023-04-28T11:37:36.579Z,100.00
2023-04-28T11:40:13.131Z,100.00
2023-04-28T11:42:51.472Z,100.00
2023-04-28T11:45:21.533Z,100.00
2023-04-28T11:47:50.954Z,100.00
2023-04-28T11:50:38.825Z,100.00
2023-04-28T11:53:08.107Z,99.51
2023-04-28T11:55:38.761Z,98.32
2023-04-28T11:58:19.084Z,98.36
2023-04-28T12:01:09.330Z,96.78
2023-04-28T12:03:49.252Z,97.88
2023-04-28T12:06:19.270Z,99.89
2023-04-28T12:08:49.808Z,100.00
2023-04-28T12:11:21.866Z,100.00
2023-04-28T12:14:05.711Z,100.00
2023-04-28T12:16:40.007Z,100.00
2023-04-28T12:19:11.017Z,100.00
2023-04-28T12:21:41.211Z,100.00
2023-04-28T12:24:19.410Z,100.00
2023-04-28T12:26:50.019Z,100.00
2023-04-28T12:29:39.964Z,100.00
2023-04-28T12:32:11.046Z,100.00
2023-04-28T12:34:42.060Z,100.00
2023-04-28T12:37:12.357Z,100.00
2023-04-28T12:39:42.623Z,100.00
2023-04-28T12:42:12.140Z,100.00
2023-04-28T12:44:41.889Z,100.00
2023-04-28T12:47:11.442Z,100.00
2023-04-28T12:49:41.683Z,100.00
2023-04-28T12:52:11.723Z,100.00
2023-04-28T12:54:42.635Z,100.00
2023-04-28T12:57:13.509Z,100.00
2023-04-28T12:59:43.039Z,100.00
2023-04-28T13:02:15.003Z,100.00
2023-04-28T13:04:46.131Z,100.00
2023-04-28T13:07:16.482Z,100.00
2023-04-28T13:09:47.735Z,100.00
2023-04-28T13:12:17.333Z,100.00
2023-04-28T13:14:47.265Z,100.00
2023-04-28T13:17:16.551Z,100.00
2023-04-28T13:19:46.637Z,100.00
2023-04-28T13:22:16.878Z,100.00
2023-04-28T13:24:47.031Z,100.00
2023-04-28T13:27:16.806Z,100.00
2023-04-28T13:29:46.414Z,100.00
2023-04-28T13:32:15.865Z,100.00
2023-04-28T13:34:46.156Z,100.00
2023-04-28T13:37:15.946Z,100.00
2023-04-28T13:39:45.689Z,100.00
2023-04-28T13:42:16.157Z,100.00
2023-04-28T13:44:47.660Z,100.00
2023-04-28T13:47:17.313Z,100.00
2023-04-28T13:49:47.910Z,100.00
2023-04-28T13:52:17.670Z,100.00
2023-04-28T13:54:47.205Z,100.00
2023-04-28T13:57:17.043Z,100.00
2023-04-28T13:59:46.384Z,100.00
2023-04-28T14:02:15.818Z,100.00
2023-04-28T14:04:47.224Z,100.00
2023-04-28T14:07:17.128Z,100.00
2023-04-28T14:09:46.980Z,100.00
2023-04-28T14:12:16.469Z,100.00
2023-04-28T14:14:49.498Z,100.00
2023-04-28T14:17:19.392Z,100.00
2023-04-28T14:19:48.766Z,100.00
2023-04-28T14:22:18.132Z,100.00
2023-04-28T14:24:47.853Z,100.00
2023-04-28T14:27:17.455Z,100.00
2023-04-28T14:29:48.669Z,100.00
2023-04-28T14:32:19.738Z,100.00
2023-04-28T14:34:51.340Z,100.00
2023-04-28T14:37:20.856Z,100.00
2023-04-28T14:39:50.410Z,99.16
2023-04-28T14:42:20.633Z,99.37
2023-04-28T14:44:50.641Z,98.11
2023-04-28T14:47:21.102Z,97.88
2023-04-28T14:49:52.413Z,97.43
2023-04-28T14:52:22.540Z,98.00
2023-04-28T14:54:52.786Z,96.03
2023-04-28T14:57:22.136Z,96.29
2023-04-28T14:59:52.304Z,96.38
2023-04-28T15:02:25.904Z,96.24
2023-04-28T15:04:57.195Z,96.07
2023-04-28T15:07:30.929Z,95.80
2023-04-28T15:10:01.018Z,95.19
2023-04-28T15:12:30.791Z,95.06
2023-04-28T15:15:00.521Z,94.48
2023-04-28T15:17:29.839Z,94.15
2023-04-28T15:19:59.529Z,93.74
2023-04-28T15:22:28.790Z,92.60
2023-04-28T15:24:58.147Z,92.02
2023-04-28T15:27:27.876Z,92.54
2023-04-28T15:29:57.530Z,91.17
2023-04-28T15:32:29.023Z,91.59
2023-04-28T15:34:58.053Z,92.76
2023-04-28T15:37:46.957Z,92.30
2023-04-28T15:40:17.532Z,91.89
2023-04-28T15:42:52.170Z,92.82
2023-04-28T15:45:22.903Z,91.69
2023-04-28T15:47:52.365Z,91.96
2023-04-28T15:50:24.045Z,91.88
2023-04-28T15:52:53.965Z,92.79
2023-04-28T15:55:24.973Z,92.43
2023-04-28T15:57:54.591Z,92.38
2023-04-28T16:00:24.557Z,92.94
2023-04-28T16:02:54.143Z,93.05
2023-04-28T16:05:23.666Z,93.25
2023-04-28T16:07:54.033Z,93.64
2023-04-28T16:10:23.587Z,93.90
2023-04-28T16:12:53.292Z,92.77
2023-04-28T16:15:23.197Z,92.65
2023-04-28T16:17:53.227Z,93.44
2023-04-28T16:20:22.729Z,93.11
2023-04-28T16:22:52.002Z,93.39
2023-04-28T16:25:21.380Z,93.25
2023-04-28T16:27:50.886Z,93.13
2023-04-28T16:30:20.651Z,92.04
2023-04-28T16:32:49.940Z,93.03
2023-04-28T16:35:19.569Z,92.67
2023-04-28T16:37:48.818Z,92.35
2023-04-28T16:40:18.173Z,92.35
2023-04-28T16:42:47.442Z,93.34
2023-04-28T16:45:17.288Z,94.24
2023-04-28T16:47:46.823Z,95.42
2023-04-28T16:50:16.556Z,95.88
2023-04-28T16:52:45.891Z,96.21
2023-04-28T16:55:15.561Z,96.33
2023-04-28T16:57:45.568Z,96.69
2023-04-28T17:00:16.033Z,97.00
2023-04-28T17:02:45.863Z,98.08
2023-04-28T17:05:15.293Z,98.30
2023-04-28T17:07:44.868Z,98.50
2023-04-28T17:10:14.318Z,99.12
2023-04-28T17:12:45.794Z,99.50
2023-04-28T17:15:19.135Z,100.00
2023-04-28T17:17:51.447Z,100.00
2023-04-28T17:20:21.607Z,100.00
2023-04-28T17:22:51.348Z,100.00
2023-04-28T17:25:22.312Z,100.00
2023-04-28T17:27:51.832Z,100.00
2023-04-28T17:30:21.146Z,100.00
2023-04-28T17:32:50.805Z,100.00
2023-04-28T17:35:20.334Z,100.00
2023-04-28T17:37:49.626Z,100.00
2023-04-28T17:40:19.851Z,100.00
2023-04-28T17:42:49.137Z,100.00
2023-04-28T17:45:18.575Z,100.00
2023-04-28T17:47:48.255Z,100.00
2023-04-28T17:50:17.646Z,100.00
2023-04-28T17:52:46.998Z,100.00
2023-04-28T17:55:16.339Z,100.00
2023-04-28T17:57:46.547Z,100.00
2023-04-28T18:00:16.008Z,100.00
2023-04-28T18:02:46.763Z,100.00
2023-04-28T18:05:17.544Z,100.00
2023-04-28T18:07:47.806Z,100.00
2023-04-28T18:10:17.521Z,100.00
2023-04-28T18:12:48.810Z,100.00
2023-04-28T18:15:25.713Z,100.00
2023-04-28T18:17:55.017Z,100.00
2023-04-28T18:20:24.560Z,100.00
2023-04-28T18:22:54.496Z,100.00
2023-04-28T18:25:24.318Z,100.00
2023-04-28T18:27:54.007Z,100.00
2023-04-28T18:30:23.447Z,100.00
2023-04-28T18:32:53.153Z,100.00
2023-04-28T18:35:22.658Z,100.00
2023-04-28T18:37:52.128Z,100.00
2023-04-28T18:40:21.562Z,100.00
2023-04-28T18:42:51.059Z,100.00
2023-04-28T18:45:20.449Z,100.00
2023-04-28T18:47:50.885Z,100.00
2023-04-28T18:50:20.514Z,100.00
2023-04-28T18:52:53.313Z,100.00
2023-04-28T18:55:22.837Z,100.00
2023-04-28T18:57:55.029Z,100.00
2023-04-28T19:00:24.733Z,100.00
2023-04-28T19:02:54.813Z,100.00
2023-04-28T19:05:24.657Z,100.00
2023-04-28T19:07:54.764Z,100.00
2023-04-28T19:10:25.063Z,100.00
2023-04-28T19:12:56.194Z,100.00
2023-04-28T19:15:25.946Z,100.00
2023-04-28T19:17:56.325Z,100.00
2023-04-28T19:20:26.324Z,100.00
2023-04-28T19:22:56.693Z,100.00
2023-04-28T19:25:26.061Z,100.00
2023-04-28T19:27:55.862Z,100.00
2023-04-28T19:30:25.593Z,100.00
2023-04-28T19:32:55.533Z,100.00
2023-04-28T19:35:25.223Z,100.00
2023-04-28T19:37:56.696Z,100.00
2023-04-28T19:40:27.761Z,100.00
2023-04-28T19:42:57.650Z,100.00
2023-04-28T19:45:27.201Z,100.00
2023-04-28T19:47:56.968Z,100.00
2023-04-28T19:50:26.977Z,100.00
2023-04-28T19:52:56.634Z,100.00
2023-04-28T19:55:26.332Z,100.00
2023-04-28T19:57:57.864Z,100.00
2023-04-28T20:00:29.886Z,100.00
2023-04-28T20:03:03.042Z,100.00
2023-04-28T20:05:32.878Z,100.00
2023-04-28T20:08:02.472Z,100.00
2023-04-28T20:10:31.876Z,100.00
2023-04-28T20:13:02.032Z,100.00
2023-04-28T20:15:31.803Z,100.00
2023-04-28T20:18:01.716Z,100.00
2023-04-28T20:20:30.982Z,100.00
2023-04-28T20:23:00.773Z,100.00
2023-04-28T20:25:30.307Z,100.00
2023-04-28T20:27:59.702Z,100.00
2023-04-28T20:30:29.109Z,100.00
2023-04-28T20:32:58.610Z,100.00
2023-04-28T20:35:28.210Z,100.00
2023-04-28T20:37:59.104Z,100.00
2023-04-28T20:40:28.456Z,100.00
2023-04-28T20:42:58.859Z,100.00
2023-04-28T20:45:28.230Z,100.00
2023-04-28T20:47:58.517Z,100.00
2023-04-28T20:50:29.972Z,100.00
2023-04-28T20:52:59.658Z,100.00
2023-04-28T20:55:29.565Z,100.00
2023-04-28T20:57:59.834Z,100.00
2023-04-28T21:00:29.455Z,100.00
2023-04-28T21:03:00.624Z,100.00
2023-04-28T21:05:30.574Z,100.00
2023-04-28T21:08:01.934Z,100.00
2023-04-28T21:10:32.508Z,100.00
2023-04-28T21:13:02.159Z,100.00
2023-04-28T21:15:35.132Z,100.00
2023-04-28T21:18:04.855Z,100.00
2023-04-28T21:20:34.926Z,100.00
2023-04-28T21:23:05.512Z,100.00
2023-04-28T21:25:36.739Z,100.00
2023-04-28T21:28:06.548Z,100.00
2023-04-28T21:30:36.182Z,100.00
2023-04-28T21:33:05.561Z,100.00
2023-04-28T21:35:35.820Z,100.00
2023-04-28T21:38:05.443Z,100.00
2023-04-28T21:40:34.934Z,100.00
2023-04-28T21:43:04.213Z,100.00
2023-04-28T21:45:34.086Z,100.00
2023-04-28T21:48:03.871Z,100.00
2023-04-28T21:50:33.240Z,100.00
2023-04-28T21:53:03.101Z,100.00
2023-04-28T21:55:32.555Z,100.00
2023-04-28T21:58:01.888Z,100.00
2023-04-28T22:00:31.730Z,100.00
2023-04-28T22:03:01.302Z,100.00
2023-04-28T22:05:30.757Z,100.00
2023-04-28T22:08:02.787Z,100.00
2023-04-28T22:10:33.882Z,100.00
2023-04-28T22:13:03.359Z,100.00
2023-04-28T22:15:32.921Z,100.00
2023-04-28T22:18:02.386Z,100.00
2023-04-28T22:20:32.579Z,100.00
2023-04-28T22:23:02.041Z,100.00
2023-04-28T22:25:31.942Z,100.00
2023-04-28T22:28:01.276Z,100.00
2023-04-28T22:30:32.504Z,100.00
2023-04-28T22:33:02.035Z,100.00
2023-04-28T22:35:31.358Z,100.00
2023-04-28T22:38:00.823Z,100.00
2023-04-28T22:40:30.097Z,100.00
2023-04-28T22:42:59.622Z,100.00
2023-04-28T22:45:28.889Z,100.00
2023-04-28T22:47:58.338Z,100.00
2023-04-28T22:50:28.922Z,100.00
2023-04-28T22:52:58.814Z,100.00
2023-04-28T22:55:28.110Z,100.00
2023-04-28T22:57:57.647Z,100.00
2023-04-28T23:00:26.895Z,100.00
2023-04-28T23:02:56.306Z,100.00
2023-04-28T23:05:25.833Z,100.00
2023-04-28T23:07:55.117Z,100.00
2023-04-28T23:10:24.416Z,100.00
2023-04-28T23:12:53.861Z,100.00
2023-04-28T23:15:23.302Z,100.00
2023-04-28T23:17:52.679Z,100.00
2023-04-28T23:20:22.359Z,100.00
2023-04-28T23:22:52.728Z,100.00
2023-04-28T23:25:22.696Z,100.00
2023-04-28T23:27:51.998Z,100.00
2023-04-28T23:30:22.120Z,100.00
2023-04-28T23:32:51.542Z,100.00
2023-04-28T23:35:21.105Z,100.00
2023-04-28T23:37:50.408Z,100.00
2023-04-28T23:40:20.192Z,100.00
2023-04-28T23:42:49.523Z,100.00
2023-04-28T23:45:19.124Z,100.00
2023-04-28T23:47:48.473Z,100.00
2023-04-28T23:50:18.213Z,100.00
2023-04-28T23:52:47.782Z,100.00
2023-04-28T23:55:17.227Z,100.00
2023-04-28T23:57:46.499Z,100.00
